Time;durP1;ratioP1;P1;durP2;ratioP2;P2;SDS_P1;SDS_P2;PMS_P1;PMS_P2;Temp;Humidity;BMP_temperature;BMP_pressure;BME280_temperature;BME280_humidity;BME280_pressure;Samples;Min_cycle;Max_cycle;Signal;HPM_P1;HPM_P2
2022/03/10 00:01:57;;;;;;;;;;;5.60;99.90;;;;;;5076733;28;20279;-65
2022/03/10 00:04:22;;;;;;;;;;;5.50;99.90;;;;;;5076769;28;20287;-65
2022/03/10 00:06:48;;;;;;;;;;;5.60;99.90;;;;;;5076807;28;19959;-65
2022/03/10 00:09:13;;;;;;;;;;;5.50;99.90;;;;;;5076755;28;20008;-65
2022/03/10 00:11:40;;;;;;;;;;;5.60;99.90;;;;;;5076774;28;20058;-65
2022/03/10 00:14:06;;;;;;;;;;;5.50;99.90;;;;;;5076476;28;19908;-65
2022/03/10 00:16:31;;;;;;;;;;;5.50;99.90;;;;;;5076294;28;19909;-65
2022/03/10 00:18:57;;;;;;;;;;;5.60;99.90;;;;;;5075791;28;19923;-65
2022/03/10 00:21:22;;;;;;;;;;;5.50;99.90;;;;;;5074990;28;20069;-65
2022/03/10 00:23:48;;;;;;;;;;;5.50;99.90;;;;;;5076226;28;19916;-65
2022/03/10 00:26:14;;;;;;;;;;;5.60;99.90;;;;;;5076262;28;19909;-65
2022/03/10 00:28:39;;;;;;;;;;;5.70;99.90;;;;;;5076311;28;20366;-65
2022/03/10 00:31:05;;;;;;;;;;;5.40;99.90;;;;;;5076345;28;19915;-65
2022/03/10 00:33:31;;;;;;;;;;;5.20;99.90;;;;;;5075012;28;19908;-67
2022/03/10 00:35:56;;;;;;;;;;;5.20;99.90;;;;;;5075998;28;19914;-67
2022/03/10 00:38:22;;;;;;;;;;;5.00;99.90;;;;;;5075931;28;20006;-65
2022/03/10 00:40:47;;;;;;;;;;;5.00;99.90;;;;;;5075869;28;20368;-65
2022/03/10 00:43:14;;;;;;;;;;;5.00;99.90;;;;;;5075896;28;19913;-65
2022/03/10 00:45:40;;;;;;;;;;;5.00;99.90;;;;;;5076027;28;19909;-65
2022/03/10 00:48:05;;;;;;;;;;;5.10;99.90;;;;;;5075973;28;20387;-65
2022/03/10 00:50:31;;;;;;;;;;;5.30;99.90;;;;;;5076016;28;19912;-65
2022/03/10 00:52:57;;;;;;;;;;;5.40;99.90;;;;;;5075583;28;19915;-65
2022/03/10 00:55:22;;;;;;;;;;;5.30;99.90;;;;;;5075523;28;19916;-65
2022/03/10 00:57:49;;;;;;;;;;;5.30;99.90;;;;;;5074089;28;19963;-65
2022/03/10 01:00:15;;;;;;;;;;;5.20;99.90;;;;;;5075377;28;20383;-65
2022/03/10 01:02:41;;;;;;;;;;;5.20;99.90;;;;;;5074080;28;19905;-65
2022/03/10 01:05:07;;;;;;;;;;;5.10;99.90;;;;;;5075237;28;19918;-65
2022/03/10 01:07:33;;;;;;;;;;;5.00;99.90;;;;;;5075230;28;20268;-65
2022/03/10 01:09:59;;;;;;;;;;;5.00;99.90;;;;;;5075688;28;19919;-65
2022/03/10 01:12:25;;;;;;;;;;;5.00;99.90;;;;;;5075694;28;19912;-65
2022/03/10 01:14:50;;;;;;;;;;;5.20;99.90;;;;;;5074044;28;20317;-65
2022/03/10 01:17:16;;;;;;;;;;;5.30;99.90;;;;;;5075125;28;20348;-65
2022/03/10 01:19:42;;;;;;;;;;;5.30;99.90;;;;;;5075303;28;19999;-65
2022/03/10 01:22:07;;;;;;;;;;;5.30;99.90;;;;;;5075342;28;19912;-66
2022/03/10 01:24:33;;;;;;;;;;;5.20;99.90;;;;;;5075291;28;20287;-65
2022/03/10 01:26:59;;;;;;;;;;;5.20;99.90;;;;;;5075304;28;19913;-66
2022/03/10 01:29:25;;;;;;;;;;;5.10;99.90;;;;;;5075168;28;20019;-65
2022/03/10 01:31:50;;;;;;;;;;;5.10;99.90;;;;;;5075102;28;20355;-65
2022/03/10 01:34:16;;;;;;;;;;;5.00;99.90;;;;;;5075093;28;19943;-66
2022/03/10 01:36:42;;;;;;;;;;;5.10;99.90;;;;;;5073883;28;19908;-66
2022/03/10 01:39:07;;;;;;;;;;;5.10;99.90;;;;;;5075057;28;19989;-65
2022/03/10 01:41:34;;;;;;;;;;;5.10;99.90;;;;;;5075034;28;19915;-65
2022/03/10 01:44:01;;;;;;;;;;;5.20;99.90;;;;;;5074881;28;19970;-66
2022/03/10 01:46:27;;;;;;;;;;;5.10;99.90;;;;;;5074725;28;19908;-65
2022/03/10 01:48:53;;;;;;;;;;;5.00;99.90;;;;;;5073445;28;19915;-65
2022/03/10 01:51:19;;;;;;;;;;;5.00;99.90;;;;;;5073613;28;20313;-65
2022/03/10 01:53:47;;;;;;;;;;;4.90;99.90;;;;;;5074615;28;19908;-65
2022/03/10 01:56:13;;;;;;;;;;;4.80;99.90;;;;;;5074332;28;19947;-65
2022/03/10 01:58:38;;;;;;;;;;;4.80;99.90;;;;;;5073063;28;19959;-65
2022/03/10 02:01:04;;;;;;;;;;;4.70;99.90;;;;;;5072988;28;19951;-65
2022/03/10 02:03:29;;;;;;;;;;;4.60;99.90;;;;;;5073067;28;19982;-65
2022/03/10 02:05:56;;;;;;;;;;;4.60;99.90;;;;;;5073795;28;19908;-65
2022/03/10 02:11:06;;;;;;;;;;;4.50;99.90;;;;;;5074060;28;19915;-65
2022/03/10 02:13:32;;;;;;;;;;;4.50;99.90;;;;;;5074127;28;20461;-65
2022/03/10 02:18:41;;;;;;;;;;;4.60;99.90;;;;;;5074026;28;19978;-65
2022/03/10 02:21:07;;;;;;;;;;;4.60;99.90;;;;;;5073944;28;19912;-65
2022/03/10 02:23:32;;;;;;;;;;;4.60;99.90;;;;;;5072635;28;20360;-65
2022/03/10 02:26:01;;;;;;;;;;;4.60;99.90;;;;;;5073976;28;19919;-65
2022/03/10 02:28:27;;;;;;;;;;;4.70;99.90;;;;;;5073826;28;20427;-65
2022/03/10 02:30:53;;;;;;;;;;;4.70;99.90;;;;;;5073957;28;19939;-65
2022/03/10 02:33:19;;;;;;;;;;;4.70;99.90;;;;;;5071203;28;19912;-65
2022/03/10 02:35:45;;;;;;;;;;;4.60;99.90;;;;;;5058099;28;19916;-65
2022/03/10 02:38:17;;;;;;;;;;;4.50;99.90;;;;;;5051149;28;20391;-65
2022/03/10 02:40:43;;;;;;;;;;;4.50;99.90;;;;;;5051498;28;19913;-65
2022/03/10 02:43:09;;;;;;;;;;;4.50;99.90;;;;;;5053611;28;19917;-65
2022/03/10 02:45:35;;;;;;;;;;;4.50;99.90;;;;;;5053810;28;19916;-65
2022/03/10 02:48:00;;;;;;;;;;;4.60;99.90;;;;;;5053755;28;19999;-65
2022/03/10 02:50:26;;;;;;;;;;;4.50;99.90;;;;;;5053327;28;20348;-65
2022/03/10 02:52:52;;;;;;;;;;;4.40;99.90;;;;;;5053476;28;20372;-65
2022/03/10 02:55:18;;;;;;;;;;;4.40;99.90;;;;;;5053685;28;19936;-65
2022/03/10 02:57:43;;;;;;;;;;;4.40;99.90;;;;;;5053821;28;19920;-65
2022/03/10 03:00:09;;;;;;;;;;;4.30;99.90;;;;;;5073330;28;19942;-65
2022/03/10 03:02:34;;;;;;;;;;;4.40;99.90;;;;;;5073417;28;19915;-65
2022/03/10 03:05:01;;;;;;;;;;;4.50;99.90;;;;;;5072311;28;19915;-65
2022/03/10 03:07:26;;;;;;;;;;;4.40;99.90;;;;;;5073614;28;19958;-65
2022/03/10 03:09:52;;;;;;;;;;;4.50;99.90;;;;;;5073364;28;19936;-65
2022/03/10 03:12:18;;;;;;;;;;;4.50;99.90;;;;;;5073395;28;20322;-66
2022/03/10 03:14:43;;;;;;;;;;;4.50;99.90;;;;;;5073381;28;19912;-65
2022/03/10 03:17:09;;;;;;;;;;;4.40;99.90;;;;;;5073208;28;19912;-66
2022/03/10 03:19:35;;;;;;;;;;;4.40;99.90;;;;;;5072206;28;19912;-65
2022/03/10 03:22:00;;;;;;;;;;;4.30;99.90;;;;;;5073362;28;20370;-65
2022/03/10 03:24:26;;;;;;;;;;;4.40;99.90;;;;;;5073118;28;19908;-65
2022/03/10 03:26:52;;;;;;;;;;;4.40;99.90;;;;;;5073133;28;20359;-65
2022/03/10 03:29:17;;;;;;;;;;;4.20;99.90;;;;;;5073125;28;19961;-65
2022/03/10 03:31:43;;;;;;;;;;;4.30;99.90;;;;;;5071722;28;19909;-65
2022/03/10 03:34:11;;;;;;;;;;;4.30;99.90;;;;;;5073159;28;19919;-65
2022/03/10 03:36:41;;;;;;;;;;;4.30;99.90;;;;;;5073414;28;20003;-65
2022/03/10 03:39:07;;;;;;;;;;;4.30;99.90;;;;;;5073151;28;19923;-65
2022/03/10 03:41:33;;;;;;;;;;;4.30;99.90;;;;;;5073248;28;19916;-65
2022/03/10 03:43:59;;;;;;;;;;;4.30;99.90;;;;;;5073162;28;19932;-65
2022/03/10 03:46:24;;;;;;;;;;;4.30;99.90;;;;;;5073027;28;20021;-65
2022/03/10 03:48:50;;;;;;;;;;;4.20;99.90;;;;;;5072635;28;19947;-65
2022/03/10 03:51:16;;;;;;;;;;;4.20;99.90;;;;;;5073145;28;19916;-65
2022/03/10 03:53:41;;;;;;;;;;;4.10;99.90;;;;;;5073167;28;20569;-65
2022/03/10 03:56:07;;;;;;;;;;;4.10;99.90;;;;;;5073203;28;19936;-65
2022/03/10 03:58:33;;;;;;;;;;;4.10;99.90;;;;;;5073007;28;19923;-65
2022/03/10 04:00:58;;;;;;;;;;;4.10;99.90;;;;;;5071684;28;19991;-65
2022/03/10 04:03:24;;;;;;;;;;;4.20;99.90;;;;;;5072846;28;20320;-65
2022/03/10 04:05:49;;;;;;;;;;;4.10;99.90;;;;;;5072914;28;19912;-65
2022/03/10 04:08:15;;;;;;;;;;;4.00;99.90;;;;;;5072923;28;19920;-65
2022/03/10 04:10:41;;;;;;;;;;;4.00;99.90;;;;;;5072959;28;20351;-65
2022/03/10 04:13:06;;;;;;;;;;;4.00;99.90;;;;;;5072978;28;19954;-65
2022/03/10 04:15:34;;;;;;;;;;;3.90;99.90;;;;;;5072835;28;20351;-65
2022/03/10 04:18:00;;;;;;;;;;;3.90;99.90;;;;;;5072810;28;19923;-65
2022/03/10 04:20:26;;;;;;;;;;;3.90;99.90;;;;;;5072908;28;19912;-65
2022/03/10 04:22:51;;;;;;;;;;;3.90;99.90;;;;;;5072614;28;19916;-65
2022/03/10 04:25:17;;;;;;;;;;;3.70;99.90;;;;;;5072657;28;20241;-65
2022/03/10 04:27:42;;;;;;;;;;;3.90;99.90;;;;;;5072987;28;19961;-65
2022/03/10 04:30:08;;;;;;;;;;;3.80;99.90;;;;;;5076445;28;19974;-65
2022/03/10 04:32:41;;;;;;;;;;;3.70;99.90;;;;;;5076401;28;20257;-65
2022/03/10 04:35:07;;;;;;;;;;;3.70;99.90;;;;;;5075035;28;20267;-65
2022/03/10 04:37:33;;;;;;;;;;;3.70;99.90;;;;;;5076151;28;19918;-65
2022/03/10 04:39:59;;;;;;;;;;;3.70;99.90;;;;;;5076339;28;19916;-65
2022/03/10 04:42:24;;;;;;;;;;;3.70;99.90;;;;;;5076111;28;19908;-65
2022/03/10 04:44:50;;;;;;;;;;;3.60;99.90;;;;;;5074962;28;19954;-65
2022/03/10 04:47:16;;;;;;;;;;;3.70;99.90;;;;;;5075484;28;19912;-65
2022/03/10 04:49:41;;;;;;;;;;;3.70;99.90;;;;;;5073420;28;19916;-65
2022/03/10 04:52:07;;;;;;;;;;;3.70;99.90;;;;;;5075502;28;19985;-65
2022/03/10 04:54:33;;;;;;;;;;;3.70;99.90;;;;;;5076020;28;19915;-65
2022/03/10 04:56:58;;;;;;;;;;;3.70;99.90;;;;;;5076009;28;19938;-65
2022/03/10 04:59:25;;;;;;;;;;;3.70;99.90;;;;;;5074412;28;19916;-65
2022/03/10 05:01:50;;;;;;;;;;;3.70;99.90;;;;;;5075696;28;19939;-65
2022/03/10 05:04:16;;;;;;;;;;;3.60;99.90;;;;;;5075815;28;19915;-65
2022/03/10 05:06:42;;;;;;;;;;;3.50;99.90;;;;;;5075751;28;20330;-65
2022/03/10 05:09:07;;;;;;;;;;;3.60;99.90;;;;;;5075631;28;19912;-65
2022/03/10 05:11:33;;;;;;;;;;;3.50;99.90;;;;;;5075395;28;19920;-65
2022/03/10 05:13:58;;;;;;;;;;;3.50;99.90;;;;;;5075307;28;19919;-65
2022/03/10 05:16:24;;;;;;;;;;;3.50;99.90;;;;;;5075301;28;20287;-65
2022/03/10 05:18:50;;;;;;;;;;;3.50;99.90;;;;;;5075390;28;19917;-65
2022/03/10 05:21:15;;;;;;;;;;;3.50;99.90;;;;;;5074194;28;19915;-65
2022/03/10 05:23:41;;;;;;;;;;;3.50;99.90;;;;;;5075421;28;20002;-65
2022/03/10 05:26:06;;;;;;;;;;;3.50;99.90;;;;;;5075457;28;19995;-65
2022/03/10 05:28:32;;;;;;;;;;;3.50;99.90;;;;;;5075333;28;19908;-65
2022/03/10 05:30:58;;;;;;;;;;;3.40;99.90;;;;;;5075298;28;19990;-65
2022/03/10 05:33:23;;;;;;;;;;;3.50;99.90;;;;;;5075199;28;19948;-65
2022/03/10 05:35:49;;;;;;;;;;;3.50;99.90;;;;;;5075100;28;20618;-65
2022/03/10 05:38:14;;;;;;;;;;;3.50;99.90;;;;;;5074995;28;19919;-65
2022/03/10 05:40:40;;;;;;;;;;;3.50;99.90;;;;;;5073843;28;19987;-65
2022/03/10 05:43:06;;;;;;;;;;;3.40;99.90;;;;;;5073985;28;19934;-65
2022/03/10 05:45:31;;;;;;;;;;;3.40;99.90;;;;;;5074836;28;19978;-65
2022/03/10 05:47:57;;;;;;;;;;;3.40;99.90;;;;;;5074805;28;19912;-65
2022/03/10 05:50:25;;;;;;;;;;;3.40;99.90;;;;;;5074705;28;19954;-65
2022/03/10 05:52:51;;;;;;;;;;;3.30;99.90;;;;;;5074854;28;20390;-65
2022/03/10 05:55:17;;;;;;;;;;;3.40;99.90;;;;;;5073602;28;20003;-65
2022/03/10 05:57:42;;;;;;;;;;;3.30;99.90;;;;;;5074414;28;19939;-66
2022/03/10 06:00:09;;;;;;;;;;;3.30;99.90;;;;;;5073253;28;19912;-66
2022/03/10 06:02:36;;;;;;;;;;;3.20;99.90;;;;;;5074380;28;19908;-66
2022/03/10 06:05:02;;;;;;;;;;;3.20;99.90;;;;;;5074442;28;19908;-65
2022/03/10 06:07:28;;;;;;;;;;;3.20;99.90;;;;;;5074520;28;19908;-65
2022/03/10 06:09:55;;;;;;;;;;;3.20;99.90;;;;;;5073488;28;19916;-66
2022/03/10 06:12:23;;;;;;;;;;;3.20;99.90;;;;;;5074287;28;19962;-66
2022/03/10 06:14:53;;;;;;;;;;;3.30;99.90;;;;;;5074533;28;19909;-66
2022/03/10 06:17:20;;;;;;;;;;;3.20;99.90;;;;;;5074199;28;19912;-65
2022/03/10 06:19:45;;;;;;;;;;;3.20;99.90;;;;;;5074215;28;19916;-66
2022/03/10 06:22:14;;;;;;;;;;;3.20;99.90;;;;;;5074106;28;20003;-65
2022/03/10 06:24:40;;;;;;;;;;;3.30;99.90;;;;;;5074217;28;19912;-66
2022/03/10 06:27:05;;;;;;;;;;;3.30;99.90;;;;;;5067714;28;20006;-65
2022/03/10 06:29:31;;;;;;;;;;;3.30;99.90;;;;;;5059565;28;19908;-66
2022/03/10 06:31:57;;;;;;;;;;;3.30;99.90;;;;;;5053504;28;19912;-66
2022/03/10 06:34:23;;;;;;;;;;;3.30;99.90;;;;;;5053391;28;19915;-66
2022/03/10 06:36:48;;;;;;;;;;;3.30;99.90;;;;;;5053039;28;20007;-65
2022/03/10 06:39:14;;;;;;;;;;;3.40;99.90;;;;;;5079360;28;19916;-65
2022/03/10 06:41:40;;;;;;;;;;;3.30;99.90;;;;;;5054443;28;19948;-66
2022/03/10 06:44:06;;;;;;;;;;;3.30;99.90;;;;;;5051804;28;20332;-65
2022/03/10 06:46:32;;;;;;;;;;;3.40;99.90;;;;;;5053064;28;19954;-66
2022/03/10 06:48:57;;;;;;;;;;;3.40;99.90;;;;;;5058108;28;20307;-66
2022/03/10 06:51:23;;;;;;;;;;;3.40;99.90;;;;;;5059978;28;19916;-65
2022/03/10 06:53:49;;;;;;;;;;;3.60;99.90;;;;;;5052530;28;19913;-65
2022/03/10 06:56:15;;;;;;;;;;;3.80;99.90;;;;;;5057180;28;20284;-66
2022/03/10 06:58:40;;;;;;;;;;;3.90;99.90;;;;;;5062145;28;20686;-65
2022/03/10 07:01:06;;;;;;;;;;;4.00;99.90;;;;;;5068636;28;19912;-65
2022/03/10 07:03:32;;;;;;;;;;;4.20;99.90;;;;;;5070545;28;19934;-65
2022/03/10 07:05:58;;;;;;;;;;;4.50;99.90;;;;;;5071465;28;19915;-64
2022/03/10 07:08:24;;;;;;;;;;;4.70;99.90;;;;;;5070930;28;19908;-65
2022/03/10 07:10:50;;;;;;;;;;;4.90;99.90;;;;;;5070684;28;20287;-65
2022/03/10 07:13:15;;;;;;;;;;;5.10;99.90;;;;;;5070814;28;19954;-65
2022/03/10 07:15:41;;;;;;;;;;;5.10;99.90;;;;;;5069171;28;19913;-65
2022/03/10 07:18:07;;;;;;;;;;;4.90;99.90;;;;;;5070295;28;19966;-65
2022/03/10 07:20:32;;;;;;;;;;;5.10;99.90;;;;;;5068660;28;20391;-65
2022/03/10 07:22:58;;;;;;;;;;;5.10;99.90;;;;;;5069145;28;19913;-65
2022/03/10 07:25:24;;;;;;;;;;;5.30;99.90;;;;;;5070569;28;19951;-65
2022/03/10 07:27:49;;;;;;;;;;;5.60;99.90;;;;;;5070676;28;19916;-65
2022/03/10 07:30:15;;;;;;;;;;;5.60;99.90;;;;;;5069277;28;20279;-64
2022/03/10 07:32:40;;;;;;;;;;;5.50;99.90;;;;;;5069611;28;19919;-65
2022/03/10 07:35:08;;;;;;;;;;;5.50;99.90;;;;;;5068686;28;19916;-65
2022/03/10 07:37:34;;;;;;;;;;;5.80;99.90;;;;;;5069676;28;19908;-65
2022/03/10 07:40:00;;;;;;;;;;;5.90;99.90;;;;;;5070228;28;19965;-65
2022/03/10 07:42:25;;;;;;;;;;;6.10;99.90;;;;;;5068923;28;19951;-65
2022/03/10 07:44:52;;;;;;;;;;;6.10;99.90;;;;;;5069221;28;20637;-65
2022/03/10 07:47:18;;;;;;;;;;;6.00;99.90;;;;;;5070448;28;20311;-65
2022/03/10 07:49:44;;;;;;;;;;;;;;;;;;5069264;28;19908;-65
2022/03/10 07:52:09;;;;;;;;;;;6.30;99.90;;;;;;5070645;28;20282;-65
2022/03/10 07:54:35;;;;;;;;;;;6.20;99.90;;;;;;5069818;28;20311;-66
2022/03/10 07:57:01;;;;;;;;;;;6.20;99.90;;;;;;5069120;28;19914;-66
2022/03/10 07:59:26;;;;;;;;;;;6.10;99.90;;;;;;5070242;28;19969;-66
2022/03/10 08:01:52;;;;;;;;;;;6.30;99.90;;;;;;5070209;28;19917;-66
2022/03/10 08:04:19;;;;;;;;;;;6.20;99.90;;;;;;5071729;28;19908;-66
2022/03/10 08:06:44;;;;;;;;;;;6.10;99.90;;;;;;5073496;28;19909;-66
2022/03/10 08:09:10;;;;;;;;;;;6.20;99.90;;;;;;5074031;28;20321;-66
2022/03/10 08:11:37;;;;;;;;;;;6.30;99.90;;;;;;5073026;28;19916;-66
2022/03/10 08:14:04;;;;;;;;;;;6.40;99.90;;;;;;5073964;28;19958;-65
2022/03/10 08:16:30;;;;;;;;;;;6.10;99.90;;;;;;5074252;28;19908;-65
2022/03/10 08:18:56;;;;;;;;;;;6.10;99.90;;;;;;5073394;28;19916;-66
2022/03/10 08:21:22;;;;;;;;;;;6.10;99.90;;;;;;5073875;28;19947;-65
2022/03/10 08:23:47;;;;;;;;;;;6.20;99.90;;;;;;5073184;28;19916;-66
2022/03/10 08:26:13;;;;;;;;;;;6.10;99.90;;;;;;5073207;28;20011;-65
2022/03/10 08:28:39;;;;;;;;;;;6.10;99.90;;;;;;5073158;28;19912;-66
2022/03/10 08:31:04;;;;;;;;;;;6.50;99.90;;;;;;5072094;28;20050;-66
2022/03/10 08:33:32;;;;;;;;;;;;;;;;;;5071619;28;20402;-68
2022/03/10 08:35:57;;;;;;;;;;;6.80;99.90;;;;;;5074056;28;19948;-66
2022/03/10 08:38:23;;;;;;;;;;;6.70;99.90;;;;;;5073497;28;19952;-66
2022/03/10 08:40:49;;;;;;;;;;;6.60;99.90;;;;;;5071650;28;19919;-66
2022/03/10 08:43:15;;;;;;;;;;;6.90;99.90;;;;;;5073214;28;19912;-66
2022/03/10 08:45:41;;;;;;;;;;;7.00;99.90;;;;;;5071667;28;19958;-66
2022/03/10 08:48:07;;;;;;;;;;;6.90;99.90;;;;;;5073236;28;20314;-67
2022/03/10 08:50:33;;;;;;;;;;;7.40;99.90;;;;;;5071897;28;20327;-66
2022/03/10 08:52:59;;;;;;;;;;;7.80;99.90;;;;;;5073400;28;19908;-66
2022/03/10 08:55:25;;;;;;;;;;;7.80;99.90;;;;;;5072982;28;20671;-66
2022/03/10 08:57:50;;;;;;;;;;;8.00;99.90;;;;;;5072715;28;19920;-66
2022/03/10 09:00:18;;;;;;;;;;;7.80;99.90;;;;;;5071851;28;19908;-65
2022/03/10 09:02:44;;;;;;;;;;;7.90;99.90;;;;;;5072666;28;19953;-67
2022/03/10 09:05:10;;;;;;;;;;;8.20;99.90;;;;;;5073030;28;19916;-67
2022/03/10 09:07:36;;;;;;;;;;;8.20;99.90;;;;;;5072689;28;19912;-66
2022/03/10 09:10:03;;;;;;;;;;;8.40;99.90;;;;;;5073013;28;20390;-66
2022/03/10 09:12:28;;;;;;;;;;;8.80;99.90;;;;;;5071725;28;20337;-66
2022/03/10 09:14:54;;;;;;;;;;;8.90;99.90;;;;;;5072046;28;19995;-66
2022/03/10 09:17:20;;;;;;;;;;;9.10;99.90;;;;;;5071158;28;20006;-66
2022/03/10 09:19:45;;;;;;;;;;;9.20;99.90;;;;;;5072631;28;19922;-66
2022/03/10 09:22:11;;;;;;;;;;;9.50;99.90;;;;;;5072721;28;20015;-66
2022/03/10 09:24:36;;;;;;;;;;;9.30;99.90;;;;;;5072080;28;19912;-66
2022/03/10 09:27:02;;;;;;;;;;;9.40;99.90;;;;;;5072173;28;19912;-66
2022/03/10 09:29:28;;;;;;;;;;;9.80;99.90;;;;;;5072864;28;19908;-66
2022/03/10 09:31:53;;;;;;;;;;;10.10;99.90;;;;;;5072480;28;20040;-67
2022/03/10 09:34:19;;;;;;;;;;;10.20;99.90;;;;;;5072345;28;19912;-66
2022/03/10 09:36:45;;;;;;;;;;;10.00;99.90;;;;;;5072135;28;19908;-67
2022/03/10 09:39:10;;;;;;;;;;;9.60;99.90;;;;;;5072310;28;19970;-66
2022/03/10 09:41:39;;;;;;;;;;;10.10;99.90;;;;;;5072543;28;19913;-66
2022/03/10 09:44:17;;;;;;;;;;;10.20;99.90;;;;;;5068879;28;19991;-67
2022/03/10 09:46:43;;;;;;;;;;;10.20;99.90;;;;;;5070821;28;20306;-66
2022/03/10 09:49:10;;;;;;;;;;;10.30;99.90;;;;;;5070915;28;20393;-66
2022/03/10 09:51:36;;;;;;;;;;;10.40;99.90;;;;;;5071525;28;19908;-66
2022/03/10 09:54:02;;;;;;;;;;;10.40;99.90;;;;;;5071844;28;19908;-66
2022/03/10 09:56:28;;;;;;;;;;;10.40;99.90;;;;;;5072105;28;20355;-66
2022/03/10 09:58:53;;;;;;;;;;;10.80;99.90;;;;;;5070436;28;19924;-67
2022/03/10 10:01:19;;;;;;;;;;;10.90;99.90;;;;;;5070560;28;19912;-66
2022/03/10 10:03:44;;;;;;;;;;;11.30;99.90;;;;;;5070882;28;19948;-66
2022/03/10 10:06:10;;;;;;;;;;;11.20;99.90;;;;;;5071376;28;20299;-66
2022/03/10 10:08:38;;;;;;;;;;;10.80;99.90;;;;;;5071415;28;19912;-66
2022/03/10 10:11:04;;;;;;;;;;;11.00;99.90;;;;;;5071523;28;19915;-66
2022/03/10 10:13:34;;;;;;;;;;;10.90;99.90;;;;;;5071509;28;20279;-66
2022/03/10 10:16:01;;;;;;;;;;;10.70;99.90;;;;;;5072090;28;19908;-66
2022/03/10 10:18:28;;;;;;;;;;;10.70;99.90;;;;;;5071473;28;20363;-66
2022/03/10 10:20:54;;;;;;;;;;;11.00;99.90;;;;;;5071327;28;19912;-66
2022/03/10 10:23:23;;;;;;;;;;;11.50;99.90;;;;;;5070995;28;19926;-67
2022/03/10 10:25:59;;;;;;;;;;;11.20;99.90;;;;;;5070614;28;20383;-67
2022/03/10 10:28:29;;;;;;;;;;;11.50;99.90;;;;;;5071022;28;19948;-66
2022/03/10 10:31:02;;;;;;;;;;;11.20;99.90;;;;;;5070890;28;19909;-66
2022/03/10 10:33:29;;;;;;;;;;;11.40;99.90;;;;;;5070045;28;20565;-66
2022/03/10 10:36:30;;;;;;;;;;;11.40;99.90;;;;;;5070842;28;19974;-67
2022/03/10 10:39:16;;;;;;;;;;;11.30;99.90;;;;;;5047789;28;19916;-67
2022/03/10 10:41:42;;;;;;;;;;;11.50;99.90;;;;;;5069485;28;20314;-66
2022/03/10 10:44:12;;;;;;;;;;;11.70;99.90;;;;;;5068603;28;20532;-66
2022/03/10 10:46:44;;;;;;;;;;;11.60;99.90;;;;;;5058323;28;20003;-67
2022/03/10 10:49:22;;;;;;;;;;;11.60;99.90;;;;;;5060982;28;19919;-66
2022/03/10 10:51:49;;;;;;;;;;;11.40;99.90;;;;;;5070494;28;19909;-66
2022/03/10 10:54:23;;;;;;;;;;;11.50;99.90;;;;;;5070568;28;19912;-66
2022/03/10 10:56:49;;;;;;;;;;;11.50;99.90;;;;;;5070834;28;20351;-66
2022/03/10 10:59:38;;;;;;;;;;;11.80;99.90;;;;;;5070961;28;19927;-66
2022/03/10 11:02:06;;;;;;;;;;;11.70;99.90;;;;;;5070252;28;20283;-67
2022/03/10 11:04:32;;;;;;;;;;;11.60;99.90;;;;;;5070605;28;19913;-66
2022/03/10 11:06:58;;;;;;;;;;;11.90;99.90;;;;;;5070866;28;19923;-66
2022/03/10 11:09:24;;;;;;;;;;;11.70;99.90;;;;;;5070962;28;19955;-66
2022/03/10 11:11:50;;;;;;;;;;;11.90;99.90;;;;;;5070621;28;19915;-66
2022/03/10 11:14:16;;;;;;;;;;;11.90;99.90;;;;;;5070563;28;19939;-67
2022/03/10 11:16:43;;;;;;;;;;;11.80;99.90;;;;;;5070602;28;20359;-66
2022/03/10 11:19:11;;;;;;;;;;;11.80;99.90;;;;;;5070366;28;20478;-66
2022/03/10 11:22:00;;;;;;;;;;;11.70;99.90;;;;;;5068433;28;20275;-66
2022/03/10 11:24:48;;;;;;;;;;;11.90;99.90;;;;;;5070397;28;19927;-66
2022/03/10 11:27:26;;;;;;;;;;;12.00;99.90;;;;;;5065376;28;19908;-66
2022/03/10 11:29:54;;;;;;;;;;;11.80;99.90;;;;;;5070189;28;19913;-66
2022/03/10 11:32:25;;;;;;;;;;;11.90;99.90;;;;;;5070194;28;19939;-67
2022/03/10 11:34:54;;;;;;;;;;;11.90;99.90;;;;;;5069840;28;20285;-67
2022/03/10 11:37:38;;;;;;;;;;;11.90;99.90;;;;;;5071059;28;20391;-67
2022/03/10 11:40:05;;;;;;;;;;;12.00;99.90;;;;;;5090095;28;19970;-67
2022/03/10 11:42:32;;;;;;;;;;;12.10;99.90;;;;;;5074398;28;19912;-66
2022/03/10 11:45:09;;;;;;;;;;;12.30;99.90;;;;;;5074451;28;19909;-66
2022/03/10 11:47:36;;;;;;;;;;;12.10;99.90;;;;;;5073823;28;19916;-67
2022/03/10 11:50:20;;;;;;;;;;;12.10;99.90;;;;;;5072299;28;20308;-67
2022/03/10 11:52:55;;;;;;;;;;;12.00;99.90;;;;;;5073574;28;20019;-68
2022/03/10 11:55:21;;;;;;;;;;;12.10;99.90;;;;;;5073573;28;19912;-67
2022/03/10 11:57:53;;;;;;;;;;;12.10;99.90;;;;;;5074026;28;19912;-67
2022/03/10 12:00:18;;;;;;;;;;;12.10;99.90;;;;;;5074313;28;20006;-68
2022/03/10 12:02:44;;;;;;;;;;;12.40;99.90;;;;;;5073881;28;20771;-67
2022/03/10 12:05:12;;;;;;;;;;;12.20;99.90;;;;;;5073734;28;19912;-66
2022/03/10 12:07:40;;;;;;;;;;;12.40;99.90;;;;;;5073645;28;19912;-67
2022/03/10 12:10:11;;;;;;;;;;;12.60;99.90;;;;;;5074153;28;19908;-67
2022/03/10 12:12:43;;;;;;;;;;;12.70;99.90;;;;;;5073881;28;19908;-67
2022/03/10 12:15:23;;;;;;;;;;;12.80;99.90;;;;;;5073589;28;20434;-67
2022/03/10 12:17:54;;;;;;;;;;;12.80;99.90;;;;;;5073122;28;19920;-66
2022/03/10 12:20:21;;;;;;;;;;;12.70;99.90;;;;;;5073151;28;19912;-67
2022/03/10 12:23:15;;;;;;;;;;;12.70;99.90;;;;;;5073480;28;19920;-67
2022/03/10 12:25:46;;;;;;;;;;;12.50;99.90;;;;;;5073483;28;19908;-67
2022/03/10 12:28:24;;;;;;;;;;;12.50;99.90;;;;;;5073534;28;20486;-67
2022/03/10 12:30:52;;;;;;;;;;;12.40;99.90;;;;;;5072120;28;19916;-67
2022/03/10 12:33:18;;;;;;;;;;;12.50;99.90;;;;;;5073464;28;20003;-67
2022/03/10 12:35:44;;;;;;;;;;;12.50;99.90;;;;;;5073472;28;19912;-67
2022/03/10 12:38:10;;;;;;;;;;;12.50;99.90;;;;;;5073168;28;19957;-67
2022/03/10 12:40:36;;;;;;;;;;;12.50;99.90;;;;;;5073288;28;19961;-67
2022/03/10 12:43:09;;;;;;;;;;;12.70;99.90;;;;;;5072956;28;19912;-66
2022/03/10 12:45:42;;;;;;;;;;;12.80;99.90;;;;;;5071212;28;19912;-67
2022/03/10 12:48:13;;;;;;;;;;;12.70;99.90;;;;;;5073203;28;19908;-67
2022/03/10 12:50:38;;;;;;;;;;;12.70;99.90;;;;;;5070018;28;19913;-68
2022/03/10 12:53:15;;;;;;;;;;;12.80;99.90;;;;;;5073234;28;19919;-68
2022/03/10 12:55:41;;;;;;;;;;;12.70;99.90;;;;;;5073152;28;19908;-67
2022/03/10 12:58:06;;;;;;;;;;;12.60;99.90;;;;;;5071619;28;19943;-66
2022/03/10 13:00:36;;;;;;;;;;;12.80;99.90;;;;;;5071164;28;19912;-66
2022/03/10 13:03:02;;;;;;;;;;;12.70;99.90;;;;;;5072957;28;19914;-67
2022/03/10 13:05:28;;;;;;;;;;;12.80;99.90;;;;;;5072863;28;20283;-67
2022/03/10 13:08:03;;;;;;;;;;;12.70;99.90;;;;;;5072510;28;19985;-67
2022/03/10 13:10:29;;;;;;;;;;;13.00;99.90;;;;;;5072445;28;19951;-67
2022/03/10 13:12:55;;;;;;;;;;;13.10;99.90;;;;;;5072565;28;19997;-67
2022/03/10 13:15:24;;;;;;;;;;;12.90;99.90;;;;;;5072385;28;19920;-67
2022/03/10 13:17:51;;;;;;;;;;;12.70;99.90;;;;;;5072335;28;20363;-67
2022/03/10 13:20:20;;;;;;;;;;;12.70;99.90;;;;;;5072643;28;19908;-67
2022/03/10 13:22:49;;;;;;;;;;;12.60;99.90;;;;;;5072073;28;19916;-67
2022/03/10 13:25:15;;;;;;;;;;;12.60;99.90;;;;;;5072560;28;19908;-67
2022/03/10 13:27:42;;;;;;;;;;;12.60;99.90;;;;;;5072262;28;19966;-67
2022/03/10 13:30:15;;;;;;;;;;;12.50;99.90;;;;;;5072425;28;19908;-68
2022/03/10 13:32:42;;;;;;;;;;;12.60;99.90;;;;;;5072288;28;19912;-67
2022/03/10 13:35:08;;;;;;;;;;;12.60;99.90;;;;;;5071727;28;19919;-67
2022/03/10 13:37:34;;;;;;;;;;;12.40;99.90;;;;;;5071970;28;19915;-67
2022/03/10 13:40:02;;;;;;;;;;;12.40;99.90;;;;;;5072135;28;20398;-66
2022/03/10 13:42:28;;;;;;;;;;;12.30;99.90;;;;;;5072674;28;19909;-67
2022/03/10 13:45:01;;;;;;;;;;;12.20;99.90;;;;;;5071679;28;20442;-68
2022/03/10 13:47:27;;;;;;;;;;;12.30;99.90;;;;;;5071894;28;20363;-67
2022/03/10 13:49:57;;;;;;;;;;;12.30;99.90;;;;;;5072076;28;19919;-67
2022/03/10 13:52:22;;;;;;;;;;;12.20;99.90;;;;;;5071821;28;19912;-67
2022/03/10 13:54:52;;;;;;;;;;;12.20;99.90;;;;;;5070616;28;20379;-67
2022/03/10 13:57:18;;;;;;;;;;;12.10;99.90;;;;;;5070478;28;20352;-67
2022/03/10 13:59:45;;;;;;;;;;;12.00;99.90;;;;;;5071567;28;20306;-67
2022/03/10 14:02:17;;;;;;;;;;;12.10;99.90;;;;;;5070990;28;19935;-67
2022/03/10 14:04:43;;;;;;;;;;;12.00;99.90;;;;;;5071391;28;19908;-67
2022/03/10 14:07:08;;;;;;;;;;;12.10;99.90;;;;;;5071909;28;19924;-67
2022/03/10 14:09:39;;;;;;;;;;;12.10;99.90;;;;;;5070708;28;20344;-66
2022/03/10 14:12:15;;;;;;;;;;;12.30;99.90;;;;;;5071671;28;20310;-67
2022/03/10 14:14:42;;;;;;;;;;;12.60;99.90;;;;;;5069441;28;20049;-68
2022/03/10 14:17:08;;;;;;;;;;;13.10;99.90;;;;;;5071137;28;19916;-68
2022/03/10 14:19:34;;;;;;;;;;;13.20;99.90;;;;;;5071491;28;19924;-67
2022/03/10 14:22:01;;;;;;;;;;;13.40;99.90;;;;;;5071732;28;19912;-66
2022/03/10 14:24:28;;;;;;;;;;;13.40;99.90;;;;;;5071420;28;19970;-67
2022/03/10 14:27:04;;;;;;;;;;;13.50;99.90;;;;;;5071090;28;19915;-67
2022/03/10 14:29:34;;;;;;;;;;;13.40;99.90;;;;;;5071061;28;19912;-66
2022/03/10 14:32:00;;;;;;;;;;;13.50;99.90;;;;;;5071555;28;19915;-68